createdAt,value
2018-09-08T00:03:47.498Z,73.47
2018-09-08T00:06:51.431Z,74.03
2018-09-08T00:09:20.242Z,73.71
2018-09-08T00:11:49.059Z,74.32
2018-09-08T00:14:23.800Z,74.43
2018-09-08T00:16:57.755Z,74.79
2018-09-08T00:19:32.024Z,74.61
2018-09-08T00:22:05.856Z,75.96
2018-09-08T00:24:39.760Z,75.99
2018-09-08T00:27:07.619Z,76.33
2018-09-08T00:29:44.193Z,75.83
2018-09-08T00:32:20.568Z,76.64
2018-09-08T00:34:49.456Z,76.64
2018-09-08T00:37:20.197Z,76.90
2018-09-08T00:39:51.017Z,76.51
2018-09-08T00:42:20.204Z,76.58
2018-09-08T00:44:50.835Z,75.91
2018-09-08T00:47:19.731Z,74.90
2018-09-08T00:49:48.553Z,75.03
2018-09-08T00:52:17.468Z,74.86
2018-09-08T00:54:46.310Z,75.42
2018-09-08T00:57:15.283Z,74.96
2018-09-08T00:59:44.440Z,75.11
2018-09-08T01:02:13.228Z,74.47
2018-09-08T01:04:42.089Z,73.78
2018-09-08T01:07:16.239Z,73.42
2018-09-08T01:09:45.053Z,74.37
2018-09-08T01:12:13.861Z,74.74
2018-09-08T01:14:44.232Z,75.25
2018-09-08T01:17:13.157Z,75.27
2018-09-08T01:19:45.412Z,75.65
2018-09-08T01:22:14.520Z,75.37
2018-09-08T01:24:49.319Z,76.15
2018-09-08T01:27:18.108Z,75.60
2018-09-08T01:29:47.293Z,75.40
2018-09-08T01:32:20.063Z,75.16
2018-09-08T01:34:51.026Z,74.42
2018-09-08T01:37:20.169Z,74.11
2018-09-08T01:39:48.980Z,73.16
2018-09-08T01:42:18.737Z,73.21
2018-09-08T01:44:47.837Z,73.49
2018-09-08T01:47:16.663Z,73.19
2018-09-08T01:49:45.504Z,72.27
2018-09-08T01:52:14.653Z,72.50
2018-09-08T01:54:46.402Z,71.42
2018-09-08T01:57:15.228Z,72.09
2018-09-08T01:59:49.335Z,70.96
2018-09-08T02:02:18.213Z,72.65
2018-09-08T02:04:47.138Z,73.47
2018-09-08T02:07:16.312Z,72.95
2018-09-08T02:09:45.103Z,73.27
2018-09-08T02:12:13.895Z,74.31
2018-09-08T02:14:43.086Z,73.48
2018-09-08T02:17:11.925Z,73.64
2018-09-08T02:19:40.754Z,73.63
2018-09-08T02:22:09.967Z,72.77
2018-09-08T02:24:38.826Z,72.25
2018-09-08T02:27:07.672Z,72.42
2018-09-08T02:32:10.156Z,72.62
2018-09-08T02:34:39.035Z,71.93
2018-09-08T02:37:08.145Z,71.12
2018-09-08T02:39:36.959Z,70.99
2018-09-08T02:42:06.609Z,70.59
2018-09-08T02:44:35.730Z,70.44
2018-09-08T02:47:04.677Z,69.75
2018-09-08T02:50:41.985Z,69.53
2018-09-08T02:53:11.802Z,69.07
2018-09-08T02:55:39.433Z,67.87
2018-09-08T02:58:07.145Z,68.59
2018-09-08T03:00:34.934Z,68.00
2018-09-08T03:03:02.335Z,68.25
2018-09-08T03:05:29.981Z,68.79
2018-09-08T03:08:00.716Z,68.39
2018-09-08T03:10:28.127Z,69.01
2018-09-08T03:13:02.008Z,68.95
2018-09-08T03:15:29.393Z,69.49
2018-09-08T03:18:03.608Z,69.90
2018-09-08T03:20:31.284Z,70.90
2018-09-08T03:22:58.718Z,70.91
2018-09-08T03:25:26.258Z,71.41
2018-09-08T03:27:53.988Z,70.75
2018-09-08T03:30:29.428Z,70.85
2018-09-08T03:32:56.879Z,71.72
2018-09-08T03:35:24.288Z,70.42
2018-09-08T03:37:52.684Z,70.05
2018-09-08T03:40:20.358Z,70.42
2018-09-08T03:42:47.823Z,70.90
2018-09-08T03:45:15.270Z,71.90
2018-09-08T03:47:42.989Z,71.56
2018-09-08T03:50:10.404Z,72.70
2018-09-08T03:52:37.897Z,73.31
2018-09-08T03:55:05.589Z,72.46
2018-09-08T03:57:32.985Z,72.96
2018-09-08T04:02:40.242Z,73.57
2018-09-08T04:05:09.048Z,74.36
2018-09-08T04:07:37.860Z,75.03
2018-09-08T04:10:09.096Z,74.76
2018-09-08T04:12:37.923Z,75.62
2018-09-08T04:15:06.749Z,75.76
2018-09-08T04:20:15.418Z,75.11
2018-09-08T04:22:44.324Z,74.81
2018-09-08T04:25:13.156Z,74.41
2018-09-08T04:27:41.972Z,74.16
2018-09-08T04:30:11.053Z,74.13
2018-09-08T04:32:39.849Z,75.11
2018-09-08T04:35:08.691Z,74.99
2018-09-08T04:37:37.804Z,75.82
2018-09-08T04:40:06.785Z,75.88
2018-09-08T04:42:35.638Z,74.93
2018-09-08T04:45:04.923Z,74.38
2018-09-08T04:47:33.777Z,74.41
2018-09-08T04:50:04.423Z,74.90
2018-09-08T04:52:33.514Z,73.29
2018-09-08T04:55:02.346Z,73.83
2018-09-08T04:57:31.218Z,72.68
2018-09-08T05:00:00.343Z,72.69
2018-09-08T05:05:08.630Z,72.79
2018-09-08T05:07:37.483Z,72.56
2018-09-08T05:10:06.862Z,72.95
2018-09-08T05:12:42.056Z,72.55
2018-09-08T05:15:10.965Z,71.87
2018-09-08T05:17:43.050Z,71.52
2018-09-08T05:20:12.213Z,71.13
2018-09-08T05:22:42.262Z,70.80
2018-09-08T05:25:11.081Z,73.44
2018-09-08T05:27:40.175Z,74.84
2018-09-08T05:30:09.041Z,75.06
2018-09-08T05:32:37.908Z,75.33
2018-09-08T05:35:07.456Z,75.56
2018-09-08T05:37:42.304Z,76.22
2018-09-08T05:40:11.196Z,76.04
2018-09-08T05:42:46.470Z,74.98
2018-09-08T05:45:15.593Z,75.69
2018-09-08T05:47:44.403Z,74.87
2018-09-08T05:50:13.289Z,74.51
2018-09-08T05:52:42.448Z,73.39
2018-09-08T05:55:11.289Z,75.57
2018-09-08T05:57:40.120Z,75.63
2018-09-08T06:00:09.329Z,75.37
2018-09-08T06:02:38.160Z,74.58
2018-09-08T06:05:06.993Z,73.46
2018-09-08T06:07:36.607Z,73.41
2018-09-08T06:10:07.407Z,72.00
2018-09-08T06:12:36.248Z,72.83
2018-09-08T06:15:09.120Z,72.79
2018-09-08T06:17:38.029Z,72.61
2018-09-08T06:20:06.901Z,71.63
2018-09-08T06:22:37.920Z,70.94
2018-09-08T06:25:06.861Z,70.17
2018-09-08T06:27:35.740Z,68.60
2018-09-08T06:30:05.795Z,67.48
2018-09-08T06:32:34.689Z,67.14
2018-09-08T06:35:04.858Z,66.78
2018-09-08T06:37:37.941Z,66.79
2018-09-08T06:40:07.087Z,67.43
2018-09-08T06:42:37.694Z,66.90
2018-09-08T06:45:07.029Z,67.23
2018-09-08T06:47:37.653Z,66.80
2018-09-08T06:50:06.549Z,65.55
2018-09-08T06:52:40.655Z,64.80
2018-09-08T06:55:10.385Z,64.62
2018-09-08T06:57:39.357Z,63.81
2018-09-08T07:02:49.364Z,63.13
2018-09-08T07:05:18.535Z,65.21
2018-09-08T07:07:47.609Z,64.85
2018-09-08T07:10:17.308Z,64.67
2018-09-08T07:12:50.993Z,64.13
2018-09-08T07:15:19.973Z,64.46
2018-09-08T07:17:54.261Z,64.28
2018-09-08T07:20:23.285Z,63.95
2018-09-08T07:22:58.554Z,63.33
2018-09-08T07:25:27.457Z,62.46
2018-09-08T07:28:07.320Z,62.00
2018-09-08T07:33:16.056Z,60.79
2018-09-08T07:35:45.297Z,59.60
2018-09-08T07:38:14.394Z,57.93
2018-09-08T07:40:43.315Z,57.47
2018-09-08T07:43:12.463Z,57.02
2018-09-08T07:45:41.349Z,56.44
2018-09-08T07:48:10.734Z,57.52
2018-09-08T07:50:40.879Z,57.40
2018-09-08T07:53:09.735Z,57.11
2018-09-08T07:55:38.676Z,57.13
2018-09-08T07:58:07.881Z,57.02
2018-09-08T08:00:39.836Z,56.43
2018-09-08T08:03:08.857Z,55.85
2018-09-08T08:05:42.762Z,56.37
2018-09-08T08:08:11.804Z,56.08
2018-09-08T08:10:40.985Z,55.59
2018-09-08T08:13:11.152Z,54.98
2018-09-08T08:15:40.136Z,53.59
2018-09-08T08:18:14.820Z,54.12
2018-09-08T08:20:43.799Z,52.73
2018-09-08T08:23:12.693Z,51.30
2018-09-08T08:25:42.003Z,51.66
2018-09-08T08:28:11.157Z,51.79
2018-09-08T08:30:40.115Z,50.48
2018-09-08T08:33:09.399Z,50.07
2018-09-08T08:35:44.732Z,51.61
2018-09-08T08:38:13.601Z,50.21
2018-09-08T08:40:42.921Z,49.19
2018-09-08T08:43:11.922Z,49.74
2018-09-08T08:45:41.021Z,48.39
2018-09-08T08:48:13.240Z,48.39
2018-09-08T08:50:52.941Z,48.04
2018-09-08T08:53:34.110Z,47.44
2018-09-08T08:56:05.342Z,48.14
2018-09-08T08:58:34.237Z,47.86
2018-09-08T09:01:03.433Z,47.62
2018-09-08T09:03:32.446Z,46.99
2018-09-08T09:06:03.791Z,46.17
2018-09-08T09:08:33.570Z,44.84
2018-09-08T09:11:01.988Z,43.20
2018-09-08T09:13:31.172Z,43.83
2018-09-08T09:16:00.378Z,43.16
2018-09-08T09:18:40.605Z,42.83
2018-09-08T09:21:19.954Z,42.68
2018-09-08T09:24:58.734Z,43.01
2018-09-08T09:27:28.264Z,43.40
2018-09-08T09:29:57.429Z,42.68
2018-09-08T09:32:26.357Z,42.30
2018-09-08T09:34:55.653Z,41.83
2018-09-08T09:37:24.626Z,41.20
2018-09-08T09:40:04.047Z,41.03
2018-09-08T09:42:34.242Z,40.58
2018-09-08T09:45:03.203Z,40.56
2018-09-08T09:47:32.175Z,39.94
2018-09-08T09:50:06.580Z,40.45
2018-09-08T09:52:35.431Z,39.50
2018-09-08T09:55:04.357Z,38.23
2018-09-08T09:57:33.560Z,37.63
2018-09-08T10:00:03.243Z,37.85
2018-09-08T10:02:39.012Z,36.81
2018-09-08T10:05:11.836Z,37.91
2018-09-08T10:07:40.710Z,38.59
2018-09-08T10:10:17.807Z,37.63
2018-09-08T10:12:51.430Z,37.29
2018-09-08T10:15:20.497Z,37.23
2018-09-08T10:17:54.052Z,36.28
2018-09-08T10:20:23.810Z,37.41
2018-09-08T10:22:59.774Z,36.28
2018-09-08T10:25:28.668Z,36.38
2018-09-08T10:27:57.603Z,36.21
2018-09-08T10:30:26.515Z,35.34
2018-09-08T10:32:55.373Z,35.69
2018-09-08T10:35:24.570Z,35.70
2018-09-08T10:37:53.548Z,36.45
2018-09-08T10:40:22.486Z,35.64
2018-09-08T10:45:29.917Z,36.11
2018-09-08T10:47:59.192Z,34.73
2018-09-08T10:50:35.200Z,33.81
2018-09-08T10:53:04.143Z,34.09
2018-09-08T10:55:37.939Z,34.36
2018-09-08T10:58:06.868Z,34.42
2018-09-08T11:00:35.962Z,36.08
2018-09-08T11:03:08.664Z,34.41
2018-09-08T11:05:38.054Z,33.37
2018-09-08T11:08:06.923Z,32.64
2018-09-08T11:10:40.919Z,31.18
2018-09-08T11:13:10.707Z,31.06
2018-09-08T11:15:41.576Z,32.57
2018-09-08T11:18:10.385Z,31.66
2018-09-08T11:20:39.322Z,32.77
2018-09-08T11:23:08.945Z,31.79
2018-09-08T11:25:54.840Z,30.56
2018-09-08T11:31:01.736Z,29.73
2018-09-08T11:33:30.708Z,29.83
2018-09-08T11:36:03.171Z,29.68
2018-09-08T11:38:32.272Z,29.98
2018-09-08T11:41:01.745Z,32.42
2018-09-08T11:43:31.244Z,29.84
2018-09-08T11:46:05.029Z,29.04
2018-09-08T11:48:34.174Z,29.90
2018-09-08T11:51:03.338Z,29.37
2018-09-08T11:53:32.738Z,28.90
2018-09-08T11:56:02.729Z,29.28
2018-09-08T11:58:31.817Z,28.95
2018-09-08T12:01:00.747Z,27.46
2018-09-08T12:03:33.143Z,28.71
2018-09-08T12:06:03.188Z,27.04
2018-09-08T12:08:32.373Z,26.49
2018-09-08T12:11:01.543Z,26.44
2018-09-08T12:13:30.793Z,29.32
2018-09-08T12:16:04.458Z,30.31
2018-09-08T12:18:33.442Z,28.70
2018-09-08T12:21:02.711Z,27.53
2018-09-08T12:23:33.808Z,27.78
2018-09-08T12:26:03.420Z,27.58
2018-09-08T12:28:33.020Z,27.09
2018-09-08T12:31:02.106Z,27.53
2018-09-08T12:33:31.365Z,27.55
2018-09-08T12:36:05.169Z,26.51
2018-09-08T12:41:16.500Z,27.00
2018-09-08T12:43:45.532Z,26.61
2018-09-08T12:46:14.477Z,25.17
2018-09-08T12:48:44.275Z,25.98
2018-09-08T12:51:13.299Z,24.95
2018-09-08T12:53:46.126Z,25.04
2018-09-08T12:56:21.621Z,24.77
2018-09-08T12:58:50.928Z,23.47
2018-09-08T13:01:19.998Z,22.83
2018-09-08T13:03:49.034Z,22.61
2018-09-08T13:06:18.608Z,22.28
2018-09-08T13:08:48.054Z,22.28
2018-09-08T13:11:16.913Z,22.37
2018-09-08T13:13:45.811Z,21.09
2018-09-08T13:16:14.959Z,21.58
2018-09-08T13:18:46.109Z,22.85
2018-09-08T13:21:14.991Z,25.81
2018-09-08T13:23:44.183Z,22.81
2018-09-08T13:26:32.439Z,22.82
2018-09-08T13:29:01.843Z,20.62
2018-09-08T13:31:36.771Z,19.67
2018-09-08T13:34:07.201Z,20.12
2018-09-08T13:36:36.085Z,20.74
2018-09-08T13:39:06.235Z,19.72
2018-09-08T13:41:35.368Z,23.32
2018-09-08T13:44:05.374Z,23.23
2018-09-08T13:46:34.335Z,21.30
2018-09-08T13:49:14.324Z,20.09
2018-09-08T13:51:43.782Z,20.82
2018-09-08T13:54:13.027Z,20.47
2018-09-08T13:56:46.054Z,21.53
2018-09-08T13:59:15.054Z,20.13
2018-09-08T14:01:43.933Z,18.33
2018-09-08T14:04:13.286Z,19.86
2018-09-08T14:06:42.144Z,18.08
2018-09-08T14:09:11.061Z,18.49
2018-09-08T14:11:41.090Z,17.82
2018-09-08T14:14:09.932Z,17.74
2018-09-08T14:16:38.969Z,17.96
2018-09-08T14:19:08.333Z,21.34
2018-09-08T14:21:37.212Z,20.80
2018-09-08T14:24:06.571Z,20.66
2018-09-08T14:26:36.774Z,20.31
2018-09-08T14:29:05.641Z,20.27
2018-09-08T14:31:34.689Z,19.84
2018-09-08T14:34:14.968Z,19.87
2018-09-08T14:36:43.822Z,19.52
2018-09-08T14:39:13.080Z,19.33
2018-09-08T14:41:47.453Z,22.62
2018-09-08T14:44:16.682Z,20.59
2018-09-08T14:46:47.072Z,21.40
2018-09-08T14:49:15.964Z,20.67
2018-09-08T14:51:48.076Z,21.30
2018-09-08T14:54:17.744Z,21.82
2018-09-08T14:56:47.049Z,20.28
2018-09-08T14:59:15.871Z,20.77
2018-09-08T15:01:46.065Z,21.21
2018-09-08T15:04:15.142Z,20.86
2018-09-08T15:06:44.165Z,22.08
2018-09-08T15:09:14.313Z,21.94
2018-09-08T15:11:44.068Z,21.83
2018-09-08T15:14:14.001Z,20.89
2018-09-08T15:16:42.899Z,23.38
2018-09-08T15:19:12.655Z,25.17
2018-09-08T15:21:41.557Z,24.15
2018-09-08T15:24:16.918Z,23.98
2018-09-08T15:26:45.990Z,25.67
2018-09-08T15:29:14.852Z,26.78
2018-09-08T15:31:44.877Z,26.47
2018-09-08T15:34:13.824Z,25.94
2018-09-08T15:36:42.869Z,25.85
2018-09-08T15:39:16.250Z,25.09
2018-09-08T15:41:45.329Z,25.99
2018-09-08T15:44:18.823Z,25.47
2018-09-08T15:46:48.046Z,25.93
2018-09-08T15:49:16.917Z,26.29
2018-09-08T15:51:46.191Z,26.39
2018-09-08T15:54:15.884Z,26.48
2018-09-08T15:56:44.915Z,26.69
2018-09-08T15:59:13.950Z,26.99
2018-09-08T16:01:43.310Z,28.02
2018-09-08T16:04:13.129Z,27.74
2018-09-08T16:06:47.475Z,26.18
2018-09-08T16:09:21.588Z,26.60
2018-09-08T16:11:50.629Z,26.86
2018-09-08T16:14:20.368Z,27.28
2018-09-08T16:19:29.271Z,26.97
2018-09-08T16:21:58.132Z,26.41
2018-09-08T16:24:26.996Z,27.35
2018-09-08T16:26:59.287Z,27.04
2018-09-08T16:32:05.554Z,26.83
2018-09-08T16:34:36.644Z,27.54
2018-09-08T16:37:09.566Z,26.97
2018-09-08T16:39:38.481Z,26.82
2018-09-08T16:42:07.849Z,27.54
2018-09-08T16:44:40.564Z,27.05
2018-09-08T16:47:09.488Z,28.40
2018-09-08T16:49:38.721Z,28.64
2018-09-08T16:52:07.778Z,28.31
2018-09-08T16:54:36.624Z,29.15
2018-09-08T16:57:10.853Z,29.11
2018-09-08T16:59:39.944Z,29.12
2018-09-08T17:02:13.137Z,30.39
2018-09-08T17:04:42.074Z,30.52
2018-09-08T17:07:10.987Z,31.60
2018-09-08T17:09:40.243Z,32.43
2018-09-08T17:12:09.396Z,33.17
2018-09-08T17:14:38.502Z,34.14
2018-09-08T17:17:07.774Z,33.45
2018-09-08T17:19:37.696Z,33.23
2018-09-08T17:22:06.787Z,33.76
2018-09-08T17:24:35.982Z,34.60
2018-09-08T17:27:04.944Z,34.64
2018-09-08T17:29:33.946Z,33.86
2018-09-08T17:32:04.229Z,34.68
2018-09-08T17:34:33.107Z,35.06
2018-09-08T17:37:02.198Z,34.76
2018-09-08T17:39:32.575Z,35.35
2018-09-08T17:42:01.524Z,35.13
2018-09-08T17:44:30.446Z,35.11
2018-09-08T17:47:14.614Z,34.94
2018-09-08T17:49:46.714Z,34.74
2018-09-08T17:52:16.223Z,35.09
2018-09-08T17:54:45.156Z,35.00
2018-09-08T17:57:20.919Z,35.33
2018-09-08T18:02:36.077Z,36.17
2018-09-08T18:05:06.409Z,35.49
2018-09-08T18:07:35.491Z,37.01
2018-09-08T18:10:05.479Z,35.80
2018-09-08T18:12:35.356Z,36.28
2018-09-08T18:15:04.335Z,36.40
2018-09-08T18:17:39.068Z,36.33
2018-09-08T18:20:08.287Z,36.85
2018-09-08T18:22:37.716Z,36.24
2018-09-08T18:25:06.826Z,36.87
2018-09-08T18:27:36.975Z,37.64
2018-09-08T18:30:06.153Z,38.08
2018-09-08T18:35:10.741Z,38.11
2018-09-08T18:37:40.255Z,37.33
2018-09-08T18:40:09.216Z,38.21
2018-09-08T18:42:39.032Z,37.97
2018-09-08T18:45:08.090Z,37.06
2018-09-08T18:47:37.617Z,37.81
2018-09-08T18:50:13.298Z,37.41
2018-09-08T18:52:42.188Z,36.98
2018-09-08T18:55:11.121Z,37.46
2018-09-08T19:00:19.857Z,37.97
2018-09-08T19:02:48.801Z,38.38
2018-09-08T19:05:17.762Z,38.17
2018-09-08T19:08:09.287Z,38.28
2018-09-08T19:10:38.608Z,38.34
2018-09-08T19:13:11.823Z,38.60
2018-09-08T19:15:40.910Z,38.66
2018-09-08T19:18:10.231Z,38.42
2018-09-08T19:20:40.568Z,38.73
2018-09-08T19:23:09.704Z,38.89
2018-09-08T19:25:39.052Z,38.65
2018-09-08T19:28:09.596Z,39.48
2018-09-08T19:30:38.553Z,38.96
2018-09-08T19:33:11.420Z,39.70
2018-09-08T19:35:40.696Z,39.44
2018-09-08T19:38:09.695Z,39.71
2018-09-08T19:40:44.315Z,38.86
2018-09-08T19:43:18.465Z,39.47
2018-09-08T19:45:47.709Z,39.88
2018-09-08T19:48:17.932Z,39.76
2018-09-08T19:50:47.804Z,40.08
2018-09-08T19:53:22.076Z,39.81
2018-09-08T20:01:58.559Z,40.58
2018-09-08T20:04:30.316Z,40.15
2018-09-08T20:06:59.660Z,40.81
2018-09-08T20:29:37.136Z,41.98
2018-09-08T20:32:15.100Z,42.62
2018-09-08T20:34:47.334Z,42.99
2018-09-08T20:37:19.701Z,42.39
2018-09-08T20:39:50.622Z,43.12
2018-09-08T20:42:21.143Z,43.12
2018-09-08T20:47:55.558Z,44.06
2018-09-08T20:50:42.363Z,43.28
2018-09-08T20:53:40.214Z,44.26
2018-09-08T20:56:39.895Z,43.90
2018-09-08T20:59:25.792Z,43.72
2018-09-08T21:13:45.684Z,48.31
2018-09-08T21:45:24.974Z,48.30
2018-09-08T21:48:07.632Z,49.52
2018-09-08T21:50:43.270Z,50.28
2018-09-08T21:53:13.044Z,49.18
2018-09-08T22:01:40.800Z,49.26
2018-09-08T22:07:05.636Z,48.47
2018-09-08T22:09:41.478Z,48.34
2018-09-08T22:12:16.617Z,48.38
2018-09-08T22:14:51.130Z,48.72
2018-09-08T22:17:23.035Z,47.90
2018-09-08T22:19:52.247Z,47.87
2018-09-08T22:22:23.697Z,48.31
2018-09-08T22:24:52.807Z,49.18
2018-09-08T22:27:23.737Z,48.81
2018-09-08T22:29:57.440Z,49.26
2018-09-08T22:32:31.361Z,49.09
2018-09-08T22:35:00.678Z,50.00
2018-09-08T22:37:33.161Z,49.60
2018-09-08T22:40:13.479Z,50.03
2018-09-08T22:42:44.180Z,50.05
2018-09-08T22:47:55.107Z,50.62
2018-09-08T22:50:25.875Z,51.73
2018-09-08T22:52:56.187Z,52.16
2018-09-08T22:55:25.490Z,52.33
2018-09-08T22:58:00.659Z,52.79
2018-09-08T23:00:29.855Z,52.14
2018-09-08T23:02:59.153Z,52.28
2018-09-08T23:05:28.675Z,52.16
2018-09-08T23:07:57.725Z,52.90
2018-09-08T23:10:26.816Z,52.79
2018-09-08T23:12:56.361Z,52.10
2018-09-08T23:15:25.878Z,52.62
2018-09-08T23:17:54.790Z,53.72
2018-09-08T23:20:24.100Z,52.79
2018-09-08T23:22:52.978Z,54.33
2018-09-08T23:25:21.811Z,54.74
2018-09-08T23:27:52.121Z,55.35
2018-09-08T23:30:21.027Z,54.83
2018-09-08T23:32:57.720Z,55.27
2018-09-08T23:35:27.023Z,59.45
2018-09-08T23:37:56.029Z,60.83
2018-09-08T23:40:24.943Z,61.05
2018-09-08T23:42:54.320Z,61.87
2018-09-08T23:45:23.231Z,61.47
2018-09-08T23:47:52.095Z,62.07
2018-09-08T23:50:21.525Z,60.74
2018-09-08T23:52:50.406Z,60.68
2018-09-08T23:55:19.329Z,59.94
2018-09-08T23:57:48.781Z,59.29
